createdAt,value
2022-12-22T00:03:15.194Z,65616.47
2022-12-22T00:08:38.788Z,65525.91
2022-12-22T00:14:02.589Z,65564.31
2022-12-22T00:19:31.350Z,65561.84
2022-12-22T00:24:54.899Z,65530.38
2022-12-22T00:30:16.874Z,65522.28
2022-12-22T00:35:41.566Z,65571.22
2022-12-22T00:41:05.009Z,65565.56
2022-12-22T00:46:31.021Z,65579.25
2022-12-22T00:51:53.113Z,65529.72
2022-12-22T00:57:18.362Z,65547.78
2022-12-22T01:02:41.234Z,65544.66
2022-12-22T01:08:03.574Z,65538.25
2022-12-22T01:13:29.610Z,65535.06
2022-12-22T01:18:51.413Z,65538.59
2022-12-22T01:24:13.384Z,65546.16
2022-12-22T01:29:36.710Z,65577.19
2022-12-22T01:34:59.040Z,65564.31
2022-12-22T01:40:21.075Z,65557.56
2022-12-22T01:45:47.093Z,65555.88
2022-12-22T01:51:08.979Z,65530.16
2022-12-22T01:56:31.022Z,65609.03
2022-12-22T02:01:55.499Z,65609.19
2022-12-22T02:07:25.979Z,65641.66
2022-12-22T02:12:55.639Z,65604.84
2022-12-22T02:18:26.980Z,65607.59
2022-12-22T02:24:04.803Z,65659.38
2022-12-22T02:29:29.511Z,65627.34
2022-12-22T02:34:51.141Z,65602.16
2022-12-22T02:40:18.638Z,65529.63
2022-12-22T02:45:49.334Z,65551.06
2022-12-22T02:51:19.588Z,65580.41
2022-12-22T02:56:43.685Z,65607.69
2022-12-22T03:02:07.558Z,65555.25
2022-12-22T03:07:29.530Z,65610.81
2022-12-22T03:12:51.475Z,65661.50
2022-12-22T03:18:20.000Z,65609.28
2022-12-22T03:23:42.053Z,65606.09
2022-12-22T03:28:48.042Z,65553.00
2022-12-22T03:33:54.028Z,65546.16
2022-12-22T03:38:58.681Z,65550.53
2022-12-22T03:44:20.391Z,65570.16
2022-12-22T03:49:26.446Z,65549.38
2022-12-22T03:54:31.472Z,65547.25
2022-12-22T03:59:36.098Z,65526.09
2022-12-22T04:04:42.269Z,65562.69
2022-12-22T04:10:09.881Z,65517.06
2022-12-22T04:15:14.551Z,65555.34
2022-12-22T04:20:22.350Z,65634.09
2022-12-22T04:25:29.730Z,65656.50
2022-12-22T04:30:34.532Z,65591.06
2022-12-22T04:35:40.550Z,65588.31
2022-12-22T04:40:45.553Z,65535.06
2022-12-22T04:45:53.995Z,65546.25
2022-12-22T04:51:01.686Z,65542.44
2022-12-22T04:56:08.499Z,65546.16
2022-12-22T05:01:15.259Z,65522.72
2022-12-22T05:06:22.561Z,65532.19
2022-12-22T05:11:27.238Z,65527.59
2022-12-22T05:16:31.878Z,65513.53
2022-12-22T05:21:37.917Z,65507.34
2022-12-22T05:26:49.401Z,65522.59
2022-12-22T05:31:53.942Z,65501.38
2022-12-22T05:37:00.598Z,65518.13
2022-12-22T05:42:06.414Z,65475.81
2022-12-22T05:47:10.920Z,65496.06
2022-12-22T05:52:17.005Z,65574.97
2022-12-22T05:57:21.593Z,65548.50
2022-12-22T06:02:26.386Z,65505.66
2022-12-22T06:07:32.513Z,65564.94
2022-12-22T06:12:38.289Z,65539.88
2022-12-22T06:17:45.103Z,65515.25
2022-12-22T06:22:51.849Z,65512.16
2022-12-22T06:27:55.937Z,65572.19
2022-12-22T06:33:04.305Z,65578.34
2022-12-22T06:38:13.282Z,65600.66
2022-12-22T06:43:21.216Z,65563.88
2022-12-22T06:48:28.799Z,65598.97
2022-12-22T06:53:37.314Z,65632.16
2022-12-22T06:58:44.790Z,65572.19
2022-12-22T07:03:53.110Z,65584.59
2022-12-22T07:09:00.234Z,65574.97
2022-12-22T07:14:04.867Z,65658.84
2022-12-22T07:19:09.415Z,65631.59
2022-12-22T07:24:23.257Z,65691.50
2022-12-22T07:29:27.854Z,65698.78
2022-12-22T07:34:32.389Z,65618.38
2022-12-22T07:39:38.347Z,65672.72
2022-12-22T07:44:46.377Z,65688.09
2022-12-22T07:50:08.225Z,65658.94
2022-12-22T07:55:14.338Z,65599.72
2022-12-22T08:00:20.331Z,65686.59
2022-12-22T08:05:27.690Z,65695.56
2022-12-22T08:10:33.819Z,65665.88
2022-12-22T08:15:38.661Z,65762.41
2022-12-22T08:20:49.507Z,65749.69
2022-12-22T08:26:00.837Z,65727.72
2022-12-22T08:31:06.002Z,65775.06
2022-12-22T08:36:11.617Z,65750.59
2022-12-22T08:41:39.554Z,65693.00
2022-12-22T08:46:44.337Z,65737.22
2022-12-22T08:51:49.578Z,65703.78
2022-12-22T08:57:03.266Z,65734.63
2022-12-22T09:02:09.627Z,65764.03
2022-12-22T09:07:14.216Z,65721.22
2022-12-22T09:12:20.628Z,65693.53
2022-12-22T09:17:25.121Z,65642.28
2022-12-22T09:22:29.794Z,65699.94
2022-12-22T09:27:35.901Z,65825.50
2022-12-22T09:32:40.281Z,65884.75
2022-12-22T09:37:47.730Z,65864.44
2022-12-22T09:42:53.782Z,65862.91
2022-12-22T09:47:58.520Z,65874.22
2022-12-22T09:53:05.211Z,65970.31
2022-12-22T09:58:25.996Z,65965.16
2022-12-22T10:03:43.134Z,65893.47
2022-12-22T10:08:48.921Z,65889.63
2022-12-22T10:13:54.624Z,65985.47
2022-12-22T10:19:02.374Z,66005.28
2022-12-22T10:24:17.701Z,65959.63
2022-12-22T10:29:24.104Z,65857.56
2022-12-22T10:34:29.062Z,65875.66
2022-12-22T10:39:35.897Z,65738.94
2022-12-22T10:44:47.161Z,65731.25
2022-12-22T10:55:16.963Z,65729.31
2022-12-22T11:00:28.973Z,65758.16
2022-12-22T11:05:35.095Z,65784.84
2022-12-22T11:10:49.151Z,65852.75
2022-12-22T11:16:01.651Z,65882.59
2022-12-22T11:21:21.989Z,65917.38
2022-12-22T11:26:43.286Z,65987.00
2022-12-22T11:32:02.351Z,65990.03
2022-12-22T11:37:29.485Z,66025.97
2022-12-22T11:42:50.489Z,66040.88
2022-12-22T11:48:02.911Z,66071.34
2022-12-22T11:53:20.641Z,66090.25
2022-12-22T11:58:43.642Z,66069.47
2022-12-22T12:04:20.498Z,66073.56
2022-12-22T12:09:41.859Z,66048.56
2022-12-22T12:14:55.531Z,66099.97
2022-12-22T12:20:12.993Z,66070.53
2022-12-22T12:25:30.102Z,65967.72
2022-12-22T12:30:42.645Z,65945.16
2022-12-22T12:35:57.597Z,65896.50
2022-12-22T12:41:11.888Z,65864.59
2022-12-22T12:46:55.491Z,65874.66
2022-12-22T12:52:01.646Z,65909.53
2022-12-22T12:57:24.261Z,65842.41
2022-12-22T13:02:40.172Z,65790.75
2022-12-22T13:08:15.521Z,65845.81
2022-12-22T13:13:49.849Z,65846.88
2022-12-22T13:18:58.594Z,65836.25
2022-12-22T13:24:23.959Z,65775.69
2022-12-22T13:29:42.836Z,65726.13
2022-12-22T13:35:30.389Z,65737.84
2022-12-22T13:40:20.628Z,65710.53
2022-12-22T13:45:36.109Z,65678.50
2022-12-22T13:50:45.220Z,65697.06
2022-12-22T13:55:50.129Z,65754.50
2022-12-22T14:01:17.216Z,65687.66
2022-12-22T14:06:33.757Z,65764.56
2022-12-22T14:11:38.108Z,65759.84
2022-12-22T14:16:47.207Z,65721.22
2022-12-22T14:22:00.964Z,65708.28
2022-12-22T14:27:05.615Z,65707.94
2022-12-22T14:32:14.091Z,65731.44
2022-12-22T14:37:32.189Z,65728.25
2022-12-22T14:42:37.052Z,65731.44
2022-12-22T14:47:42.985Z,65764.09
2022-12-22T14:52:51.170Z,65791.22
2022-12-22T14:57:58.845Z,65769.81
2022-12-22T15:03:08.227Z,65754.84
2022-12-22T15:08:38.693Z,65754.50
2022-12-22T15:13:44.459Z,65697.91
2022-12-22T15:18:51.053Z,65775.88
2022-12-22T15:23:55.357Z,65793.88
2022-12-22T15:29:00.941Z,65798.34
2022-12-22T15:34:14.539Z,65803.03
2022-12-22T15:39:20.375Z,65808.81
2022-12-22T15:44:25.206Z,65799.84
2022-12-22T15:49:35.021Z,65751.28
2022-12-22T15:54:39.565Z,65818.53
2022-12-22T15:59:43.991Z,65803.50
2022-12-22T16:04:49.854Z,65821.22
2022-12-22T16:09:53.894Z,65794.31
2022-12-22T16:15:00.884Z,65810.53
2022-12-22T16:20:08.269Z,65724.50
2022-12-22T16:25:15.904Z,65750.69
2022-12-22T16:30:22.954Z,65698.78
2022-12-22T16:35:32.961Z,65713.09
2022-12-22T16:40:45.406Z,65715.00
2022-12-22T16:45:51.191Z,65717.47
2022-12-22T16:50:57.333Z,65767.78
2022-12-22T16:56:02.049Z,65736.16
2022-12-22T17:01:07.173Z,65724.06
2022-12-22T17:06:13.585Z,65720.75
2022-12-22T17:11:22.672Z,65690.88
2022-12-22T17:16:27.258Z,65735.63
2022-12-22T17:21:34.607Z,65671.09
2022-12-22T17:26:39.326Z,65651.47
2022-12-22T17:31:43.936Z,65715.97
2022-12-22T17:36:51.224Z,65675.28
2022-12-22T17:48:42.364Z,65737.84
2022-12-22T17:53:56.563Z,65707.75
2022-12-22T17:59:03.673Z,65705.81
2022-12-22T18:10:28.924Z,65681.06
2022-12-22T18:15:36.063Z,65689.16
2022-12-22T18:20:42.316Z,65707.88
2022-12-22T18:25:48.647Z,65807.31
2022-12-22T18:30:55.260Z,65710.53
2022-12-22T18:36:01.375Z,65657.03
2022-12-22T18:41:10.140Z,65699.84
2022-12-22T18:46:14.697Z,65656.50
2022-12-22T18:51:26.083Z,65678.38
2022-12-22T18:56:35.193Z,65668.53
2022-12-22T19:01:53.962Z,65657.16
2022-12-22T19:07:06.992Z,65708.41
2022-12-22T19:12:15.259Z,65737.75
2022-12-22T19:17:27.462Z,65705.19
2022-12-22T19:22:32.579Z,65649.22
2022-12-22T19:27:49.267Z,65669.06
2022-12-22T19:33:01.511Z,65682.31
2022-12-22T19:38:19.899Z,65639.09
2022-12-22T19:43:26.084Z,65612.31
2022-12-22T19:48:30.629Z,65663.75
2022-12-22T19:53:35.184Z,65585.00
2022-12-22T19:58:42.055Z,65591.50
2022-12-22T20:03:46.635Z,65572.81
2022-12-22T20:08:51.198Z,65593.09
2022-12-22T20:13:57.489Z,65582.44
2022-12-22T20:19:01.979Z,65568.34
2022-12-22T20:24:08.205Z,65602.69
2022-12-22T20:29:14.618Z,65576.66
2022-12-22T20:34:19.073Z,65628.31
2022-12-22T20:39:23.688Z,65683.91
2022-12-22T20:44:29.681Z,65679.56
2022-12-22T20:49:34.664Z,65612.75
2022-12-22T20:54:39.199Z,65629.91
2022-12-22T20:59:51.966Z,65614.44
2022-12-22T21:05:00.056Z,65607.41
2022-12-22T21:10:05.095Z,65588.41
2022-12-22T21:15:17.581Z,65499.38
2022-12-22T21:20:25.304Z,65588.41
2022-12-22T21:25:30.157Z,65543.41
2022-12-22T21:30:36.203Z,65538.69
2022-12-22T21:35:40.844Z,65537.63
2022-12-22T21:40:47.003Z,65507.16
2022-12-22T21:45:53.198Z,65529.09
2022-12-22T21:50:57.674Z,65537.00
2022-12-22T21:56:03.810Z,65493.94
2022-12-22T22:01:14.646Z,65516.84
2022-12-22T22:06:19.365Z,65518.00
2022-12-22T22:11:25.454Z,65509.72
2022-12-22T22:16:31.525Z,65510.56
2022-12-22T22:21:36.215Z,65442.75
2022-12-22T22:26:40.948Z,65487.97
2022-12-22T22:31:46.953Z,65458.75
2022-12-22T22:36:52.511Z,65490.19
2022-12-22T22:41:57.038Z,65491.81
2022-12-22T22:47:03.130Z,65478.56
2022-12-22T22:52:07.720Z,65492.44
2022-12-22T22:57:12.146Z,65484.34
2022-12-22T23:02:18.085Z,65462.03
2022-12-22T23:07:22.600Z,65473.22
2022-12-22T23:12:27.025Z,65439.66
2022-12-22T23:17:33.086Z,65460.88
2022-12-22T23:22:38.231Z,65525.38
2022-12-22T23:27:42.752Z,65481.56
2022-12-22T23:32:50.888Z,65534.00
2022-12-22T23:37:55.466Z,65523.13
2022-12-22T23:43:01.413Z,65485.84
2022-12-22T23:48:07.940Z,65482.72
2022-12-22T23:53:12.730Z,65539.75
2022-12-22T23:58:18.470Z,65521.31
